Time;durP1;ratioP1;P1;durP2;ratioP2;P2;SDS_P1;SDS_P2;PMS_P1;PMS_P2;Temp;Humidity;BMP_temperature;BMP_pressure;BME280_temperature;BME280_humidity;BME280_pressure;Samples;Min_cycle;Max_cycle;Signal;HPM_P1;HPM_P2
2022/03/27 00:00:36;;;;;;;;;;;;;;;;;;5097434;28;19912;-22
2022/03/27 00:03:02;;;;;;;;;;;;;;;;;;5097501;28;19919;-23
2022/03/27 00:05:28;;;;;;;;;;;;;;;;;;5097206;28;19970;-21
2022/03/27 00:07:54;;;;;;;;;;;;;;;;;;5097513;28;19912;-22
2022/03/27 00:10:20;;;;;;;;;;;;;;;;;;5097543;28;20002;-24
2022/03/27 00:12:46;;;;;;;;;;;;;;;;;;5097285;28;19965;-24
2022/03/27 00:15:12;;;;;;;;;;;;;;;;;;5097197;28;19916;-22
2022/03/27 00:17:38;;;;;;;;;;;;;;;;;;5097400;28;20243;-25
2022/03/27 00:20:04;;;;;;;;;;;;;;;;;;5097423;28;19912;-22
2022/03/27 00:22:30;;;;;;;;;;;;;;;;;;5096879;28;19931;-22
2022/03/27 00:24:56;;;;;;;;;;;;;;;;;;5097269;28;20049;-22
2022/03/27 00:27:22;;;;;;;;;;;;;;;;;;5097141;28;19963;-22
2022/03/27 00:29:49;;;;;;;;;;;;;;;;;;5079357;28;20362;-24
2022/03/27 00:32:15;;;;;;;;;;;;;;;;;;5096770;28;19915;-22
2022/03/27 00:34:41;;;;;;;;;;;;;;;;;;5096993;28;19916;-22
2022/03/27 00:37:06;;;;;;;;;;;;;;;;;;5096687;28;19935;-23
2022/03/27 00:39:32;;;;;;;;;;;;;;;;;;5096702;28;20250;-22
2022/03/27 00:41:59;;;;;;;;;;;;;;;;;;5097125;28;19912;-22
2022/03/27 00:44:24;;;;;;;;;;;;;;;;;;5096479;28;20347;-22
2022/03/27 00:46:50;;;;;;;;;;;;;;;;;;5097070;28;19965;-22
2022/03/27 00:49:16;;;;;;;;;;;;;;;;;;5096553;28;19914;-22
2022/03/27 00:51:42;;;;;;;;;;;;;;;;;;5078528;28;19985;-22
2022/03/27 00:54:08;;;;;;;;;;;;;;;;;;5096308;28;19908;-22
2022/03/27 00:56:34;;;;;;;;;;;;;;;;;;5096275;28;20018;-22
2022/03/27 00:59:00;;;;;;;;;;;;;;;;;;5096617;28;19916;-22
2022/03/27 01:01:26;;;;;;;;;;;;;;;;;;5096226;28;19919;-22
2022/03/27 01:03:57;;;;;;;;;;;;;;;;;;5096069;28;19967;-23
2022/03/27 01:06:23;;;;;;;;;;;;;;;;;;5095945;28;19931;-22
2022/03/27 01:11:34;;;;;;;;;;;;;;;;;;5096166;28;20077;-22
2022/03/27 01:14:00;;;;;;;;;;;;;;;;;;5096034;28;19989;-22
2022/03/27 01:16:25;;;;;;;;;;;;;;;;;;5095980;28;19939;-22
2022/03/27 01:18:51;;;;;;;;;;;;;;;;;;5096194;28;19916;-22
2022/03/27 01:21:17;;;;;;;;;;;;;;;;;;5095942;28;19908;-21
2022/03/27 01:23:43;;;;;;;;;;;;;;;;;;5095732;28;19966;-22
2022/03/27 01:26:09;;;;;;;;;;;;;;;;;;5095876;28;19959;-22
2022/03/27 01:28:35;;;;;;;;;;;;;;;;;;5096317;28;20331;-21
2022/03/27 01:31:01;;;;;;;;;;;;;;;;;;5095420;28;19948;-21
2022/03/27 01:33:27;;;;;;;;;;;;;;;;;;5096275;28;19919;-21
2022/03/27 01:35:53;;;;;;;;;;;;;;;;;;5095673;28;20373;-21
2022/03/27 01:38:19;;;;;;;;;;;;;;;;;;5095638;28;19935;-22
2022/03/27 01:40:45;;;;;;;;;;;;;;;;;;5095786;28;19923;-22
2022/03/27 01:43:11;;;;;;;;;;;;;;;;;;5095638;28;20396;-23
2022/03/27 01:45:37;;;;;;;;;;;;;;;;;;5095749;28;19912;-22
2022/03/27 01:48:03;;;;;;;;;;;;;;;;;;5095483;28;19908;-21
2022/03/27 01:50:29;;;;;;;;;;;;;;;;;;5095391;28;19912;-21
2022/03/27 01:52:55;;;;;;;;;;;;;;;;;;5095563;28;20335;-22
2022/03/27 01:55:21;;;;;;;;;;;;;;;;;;5095642;28;20261;-21
2022/03/27 01:57:47;;;;;;;;;;;;;;;;;;5095267;28;20346;-23
2022/03/27 02:00:14;;;;;;;;;;;;;;;;;;5095356;28;19962;-21
2022/03/27 02:02:40;;;;;;;;;;;;;;;;;;5095111;28;20335;-21
2022/03/27 02:05:06;;;;;;;;;;;;;;;;;;5095551;28;19908;-21
2022/03/27 02:07:32;;;;;;;;;;;;;;;;;;5095090;28;19920;-21
2022/03/27 02:09:58;;;;;;;;;;;;;;;;;;5095249;28;19915;-21
2022/03/27 02:12:24;;;;;;;;;;;;;;;;;;5095060;28;19974;-21
2022/03/27 02:14:50;;;;;;;;;;;;;;;;;;5095439;28;19920;-21
2022/03/27 02:17:16;;;;;;;;;;;;;;;;;;5095391;28;19919;-21
2022/03/27 02:19:42;;;;;;;;;;;;;;;;;;5095146;28;20327;-22
2022/03/27 02:22:07;;;;;;;;;;;;;;;;;;5094964;28;20004;-22
2022/03/27 02:24:33;;;;;;;;;;;;;;;;;;5095613;28;20369;-22
2022/03/27 02:26:59;;;;;;;;;;;;;;;;;;5095013;28;19965;-22
2022/03/27 02:29:25;;;;;;;;;;;;;;;;;;5095360;28;20328;-23
2022/03/27 02:31:51;;;;;;;;;;;;;;;;;;5094913;28;19916;-22
2022/03/27 02:34:17;;;;;;;;;;;;;;;;;;5095288;28;19919;-22
2022/03/27 02:36:43;;;;;;;;;;;;;;;;;;5095218;28;19919;-22
2022/03/27 02:39:09;;;;;;;;;;;;;;;;;;5094970;28;20323;-22
2022/03/27 02:41:35;;;;;;;;;;;;;;;;;;5095453;28;20372;-24
2022/03/27 02:44:01;;;;;;;;;;;;;;;;;;5096358;28;19916;-22
2022/03/27 02:46:27;;;;;;;;;;;;;;;;;;5080986;28;19911;-22
2022/03/27 02:48:53;;;;;;;;;;;;;;;;;;5099139;28;19915;-22
2022/03/27 02:51:19;;;;;;;;;;;;;;;;;;5080947;28;20267;-22
2022/03/27 02:53:45;;;;;;;;;;;;;;;;;;5098938;28;19912;-22
2022/03/27 02:56:11;;;;;;;;;;;;;;;;;;5098972;28;19947;-23
2022/03/27 02:58:37;;;;;;;;;;;;;;;;;;5099221;28;19912;-22
2022/03/27 03:01:03;;;;;;;;;;;;;;;;;;5098593;28;20249;-22
2022/03/27 03:03:29;;;;;;;;;;;;;;;;;;5098563;28;19918;-22
2022/03/27 03:05:55;;;;;;;;;;;;;;;;;;5098399;28;20425;-22
2022/03/27 03:08:21;;;;;;;;;;;;;;;;;;5098455;28;20362;-22
2022/03/27 03:10:47;;;;;;;;;;;;;;;;;;5098946;28;19912;-22
2022/03/27 03:13:13;;;;;;;;;;;;;;;;;;5098307;28;19908;-23
2022/03/27 03:15:39;;;;;;;;;;;;;;;;;;5098329;28;19927;-22
2022/03/27 03:18:05;;;;;;;;;;;;;;;;;;5098309;28;19999;-22
2022/03/27 03:20:31;;;;;;;;;;;;;;;;;;5098813;28;20003;-22
2022/03/27 03:22:57;;;;;;;;;;;;;;;;;;5098042;28;19923;-22
2022/03/27 03:25:23;;;;;;;;;;;;;;;;;;5098156;28;19912;-21
2022/03/27 03:27:49;;;;;;;;;;;;;;;;;;5098338;28;19908;-22
2022/03/27 03:30:16;;;;;;;;;;;;;;;;;;5098087;28;20351;-22
2022/03/27 03:32:42;;;;;;;;;;;;;;;;;;5098186;28;20254;-22
2022/03/27 03:35:08;;;;;;;;;;;;;;;;;;5098259;28;19936;-22
2022/03/27 03:37:34;;;;;;;;;;;;;;;;;;5097923;28;20305;-23
2022/03/27 03:40:00;;;;;;;;;;;;;;;;;;5098466;28;19912;-22
2022/03/27 03:42:26;;;;;;;;;;;;;;;;;;5097599;28;19912;-21
2022/03/27 03:44:52;;;;;;;;;;;;;;;;;;5097758;28;19912;-28
2022/03/27 03:47:19;;;;;;;;;;;;;;;;;;5097954;28;19999;-21
2022/03/27 03:49:45;;;;;;;;;;;;;;;;;;5097560;28;19912;-22
2022/03/27 03:52:11;;;;;;;;;;;;;;;;;;5097493;28;19919;-22
2022/03/27 03:54:37;;;;;;;;;;;;;;;;;;5097712;28;19912;-22
2022/03/27 03:57:03;;;;;;;;;;;;;;;;;;5097514;28;19969;-22
2022/03/27 03:59:32;;;;;;;;;;;;;;;;;;5097773;28;19934;-23
2022/03/27 04:01:58;;;;;;;;;;;;;;;;;;5097588;28;20053;-22
2022/03/27 04:04:24;;;;;;;;;;;;;;;;;;5097348;28;20293;-23
2022/03/27 04:06:50;;;;;;;;;;;;;;;;;;5097102;28;19932;-22
2022/03/27 04:09:17;;;;;;;;;;;;;;;;;;5097360;28;19961;-23
2022/03/27 04:11:43;;;;;;;;;;;;;;;;;;5097147;28;19912;-22
2022/03/27 04:14:09;;;;;;;;;;;;;;;;;;5097179;28;19908;-23
2022/03/27 04:16:35;;;;;;;;;;;;;;;;;;5079343;28;19969;-21
2022/03/27 04:19:01;;;;;;;;;;;;;;;;;;5097424;28;20331;-21
2022/03/27 04:21:27;;;;;;;;;;;;;;;;;;5097023;28;19912;-21
2022/03/27 04:23:53;;;;;;;;;;;;;;;;;;5096782;28;19919;-22
2022/03/27 04:26:19;;;;;;;;;;;;;;;;;;5096972;28;19969;-22
2022/03/27 04:28:45;;;;;;;;;;;;;;;;;;5097488;28;20347;-22
2022/03/27 04:31:11;;;;;;;;;;;;;;;;;;5096883;28;19916;-22
2022/03/27 04:33:37;;;;;;;;;;;;;;;;;;5096780;28;19912;-23
2022/03/27 04:36:03;;;;;;;;;;;;;;;;;;5096764;28;19912;-21
2022/03/27 04:38:29;;;;;;;;;;;;;;;;;;5096734;28;20333;-22
2022/03/27 04:40:55;;;;;;;;;;;;;;;;;;5096726;28;19922;-23
2022/03/27 04:43:22;;;;;;;;;;;;;;;;;;5097068;28;20323;-22
2022/03/27 04:45:48;;;;;;;;;;;;;;;;;;5096515;28;20011;-22
2022/03/27 04:48:14;;;;;;;;;;;;;;;;;;5096508;28;20311;-22
2022/03/27 04:50:40;;;;;;;;;;;;;;;;;;5096475;28;19922;-22
2022/03/27 04:53:06;;;;;;;;;;;;;;;;;;5097338;28;19946;-22
2022/03/27 04:55:32;;;;;;;;;;;;;;;;;;5096477;28;19918;-22
2022/03/27 04:57:58;;;;;;;;;;;;;;;;;;5096918;28;19950;-23
2022/03/27 05:00:24;;;;;;;;;;;;;;;;;;5096324;28;20331;-22
2022/03/27 05:02:50;;;;;;;;;;;;;;;;;;5096268;28;20385;-23
2022/03/27 05:05:17;;;;;;;;;;;;;;;;;;5096197;28;19908;-22
2022/03/27 05:07:43;;;;;;;;;;;;;;;;;;5095156;28;19920;-22
2022/03/27 05:10:08;;;;;;;;;;;;;;;;;;5096169;28;19920;-22
2022/03/27 05:12:34;;;;;;;;;;;;;;;;;;5096164;28;19912;-22
2022/03/27 05:15:00;;;;;;;;;;;;;;;;;;5096612;28;19912;-23
2022/03/27 05:17:26;;;;;;;;;;;;;;;;;;5096021;28;19912;-21
2022/03/27 05:19:52;;;;;;;;;;;;;;;;;;5096526;28;19915;-22
2022/03/27 05:22:18;;;;;;;;;;;;;;;;;;5095739;28;19969;-21
2022/03/27 05:24:47;;;;;;;;;;;;;;;;;;5095914;28;19912;-22
2022/03/27 05:27:14;;;;;;;;;;;;;;;;;;5095803;28;19956;-21
2022/03/27 05:29:40;;;;;;;;;;;;;;;;;;5095692;28;19970;-22
2022/03/27 05:32:06;;;;;;;;;;;;;;;;;;5095698;28;19908;-23
2022/03/27 05:34:32;;;;;;;;;;;;;;;;;;5095737;28;19912;-22
2022/03/27 05:36:58;;;;;;;;;;;;;;;;;;5095658;28;19935;-21
2022/03/27 05:39:24;;;;;;;;;;;;;;;;;;5095617;28;20263;-21
2022/03/27 05:41:50;;;;;;;;;;;;;;;;;;5095442;28;19912;-21
2022/03/27 05:44:16;;;;;;;;;;;;;;;;;;5095508;28;19923;-22
2022/03/27 05:46:42;;;;;;;;;;;;;;;;;;5095550;28;19935;-22
2022/03/27 05:49:08;;;;;;;;;;;;;;;;;;5095496;28;19924;-22
2022/03/27 05:51:34;;;;;;;;;;;;;;;;;;5095725;28;19923;-22
2022/03/27 05:54:00;;;;;;;;;;;;;;;;;;5095401;28;19920;-21
2022/03/27 05:56:26;;;;;;;;;;;;;;;;;;5095931;28;19912;-22
2022/03/27 05:58:52;;;;;;;;;;;;;;;;;;5095266;28;19912;-22
2022/03/27 06:01:18;;;;;;;;;;;;;;;;;;5077552;28;19912;-23
2022/03/27 06:03:44;;;;;;;;;;;;;;;;;;5095169;28;20243;-23
2022/03/27 06:06:10;;;;;;;;;;;;;;;;;;5095477;28;19927;-22
2022/03/27 06:08:36;;;;;;;;;;;;;;;;;;5095568;28;19920;-23
2022/03/27 06:11:02;;;;;;;;;;;;;;;;;;5095431;28;20019;-22
2022/03/27 06:13:28;;;;;;;;;;;;;;;;;;5095116;28;19908;-21
2022/03/27 06:15:54;;;;;;;;;;;;;;;;;;5095720;28;19981;-21
2022/03/27 06:18:21;;;;;;;;;;;;;;;;;;5097132;28;20326;-22
2022/03/27 06:20:47;;;;;;;;;;;;;;;;;;5099651;28;19912;-21
2022/03/27 06:23:13;;;;;;;;;;;;;;;;;;5099245;28;20220;-22
2022/03/27 06:25:39;;;;;;;;;;;;;;;;;;5099563;28;19918;-21
2022/03/27 06:28:05;;;;;;;;;;;;;;;;;;5099838;28;19962;-21
2022/03/27 06:30:31;;;;;;;;;;;;;;;;;;5099174;28;19916;-21
2022/03/27 06:32:57;;;;;;;;;;;;;;;;;;5099320;28;19919;-23
2022/03/27 06:35:23;;;;;;;;;;;;;;;;;;5099332;28;20313;-21
2022/03/27 06:37:49;;;;;;;;;;;;;;;;;;5099352;28;19919;-22
2022/03/27 06:40:15;;;;;;;;;;;;;;;;;;5098990;28;20331;-22
2022/03/27 06:42:41;;;;;;;;;;;;;;;;;;5099079;28;19920;-23
2022/03/27 06:45:07;;;;;;;;;;;;;;;;;;5099504;28;19954;-21
2022/03/27 06:47:33;;;;;;;;;;;;;;;;;;5099161;28;19970;-22
2022/03/27 06:49:59;;;;;;;;;;;;;;;;;;5098814;28;19912;-21
2022/03/27 06:52:25;;;;;;;;;;;;;;;;;;5080871;28;19919;-22
2022/03/27 06:54:51;;;;;;;;;;;;;;;;;;5098686;28;20262;-22
2022/03/27 06:57:17;;;;;;;;;;;;;;;;;;5098744;28;19912;-22
2022/03/27 07:05:15;;;;;;;;;;;;;;;;;;5098928;28;19934;-22
2022/03/27 07:07:42;;;;;;;;;;;;;;;;;;5098329;28;19931;-23
2022/03/27 07:10:08;;;;;;;;;;;;;;;;;;5098438;28;19912;-22
2022/03/27 07:12:34;;;;;;;;;;;;;;;;;;5098532;28;19915;-22
2022/03/27 07:15:00;;;;;;;;;;;;;;;;;;5098942;28;19969;-22
2022/03/27 07:17:27;;;;;;;;;;;;;;;;;;5098261;28;20370;-22
2022/03/27 07:19:53;;;;;;;;;;;;;;;;;;5098507;28;19978;-22
2022/03/27 07:22:19;;;;;;;;;;;;;;;;;;5098330;28;19924;-21
2022/03/27 07:24:46;;;;;;;;;;;;;;;;;;5098405;28;19912;-22
2022/03/27 07:27:13;;;;;;;;;;;;;;;;;;5098395;28;20232;-23
2022/03/27 07:29:39;;;;;;;;;;;;;;;;;;5097269;28;19919;-22
2022/03/27 07:32:05;;;;;;;;;;;;;;;;;;5097930;28;19916;-22
2022/03/27 07:34:31;;;;;;;;;;;;;;;;;;5098006;28;19923;-22
2022/03/27 07:36:57;;;;;;;;;;;;;;;;;;5097955;28;20359;-23
2022/03/27 07:39:23;;;;;;;;;;;;;;;;;;5098159;28;19916;-22
2022/03/27 07:41:49;;;;;;;;;;;;;;;;;;5098020;28;20317;-21
2022/03/27 07:44:15;;;;;;;;;;;;;;;;;;5097759;28;19912;-24
2022/03/27 07:46:41;;;;;;;;;;;;;;;;;;5098017;28;19923;-22
2022/03/27 07:49:08;;;;;;;;;;;;;;;;;;5098017;28;19908;-22
2022/03/27 07:51:36;;;;;;;;;;;;;;;;;;5097639;28;19927;-23
2022/03/27 07:54:02;;;;;;;;;;;;;;;;;;5098156;28;19908;-22
2022/03/27 07:56:29;;;;;;;;;;;;;;;;;;5097831;28;19976;-22
2022/03/27 07:58:55;;;;;;;;;;;;;;;;;;5097463;28;19973;-21
2022/03/27 08:01:22;;;;;;;;;;;;;;;;;;5097444;28;19916;-22
2022/03/27 08:03:49;;;;;;;;;;;;;;;;;;5097272;28;19923;-22
2022/03/27 08:06:15;;;;;;;;;;;;;;;;;;5097581;28;20041;-21
2022/03/27 08:08:42;;;;;;;;;;;;;;;;;;5097889;28;20259;-22
2022/03/27 08:11:07;;;;;;;;;;;;;;;;;;5097299;28;20258;-21
2022/03/27 08:13:34;;;;;;;;;;;;;;;;;;5097195;28;19912;-23
2022/03/27 08:16:00;;;;;;;;;;;;;;;;;;5097734;28;19923;-22
2022/03/27 08:18:26;;;;;;;;;;;;;;;;;;5097725;28;20347;-22
2022/03/27 08:20:52;;;;;;;;;;;;;;;;;;5097325;28;19913;-23
2022/03/27 08:23:18;;;;;;;;;;;;;;;;;;5096813;28;19919;-21
2022/03/27 08:28:29;;;;;;;;;;;;;;;;;;5097033;28;19922;-22
2022/03/27 08:30:55;;;;;;;;;;;;;;;;;;5097166;28;19912;-21
2022/03/27 08:33:21;;;;;;;;;;;;;;;;;;5096809;28;19919;-24
2022/03/27 08:35:47;;;;;;;;;;;;;;;;;;5097345;28;19918;-21
2022/03/27 08:38:13;;;;;;;;;;;;;;;;;;5096795;28;19907;-21
2022/03/27 08:40:39;;;;;;;;;;;;;;;;;;5096737;28;19916;-21
2022/03/27 08:43:05;;;;;;;;;;;;;;;;;;5096529;28;20014;-21
2022/03/27 08:45:31;;;;;;;;;;;;;;;;;;5097144;28;19970;-22
2022/03/27 08:47:57;;;;;;;;;;;;;;;;;;5078702;28;19908;-21
2022/03/27 08:50:23;;;;;;;;;;;;;;;;;;5097107;28;19912;-23
2022/03/27 08:52:49;;;;;;;;;;;;;;;;;;5096440;28;20366;-22
2022/03/27 08:55:15;;;;;;;;;;;;;;;;;;5096714;28;19920;-22
2022/03/27 08:57:41;;;;;;;;;;;;;;;;;;5096388;28;20277;-21
2022/03/27 09:00:07;;;;;;;;;;;;;;;;;;5096369;28;20346;-25
2022/03/27 09:02:33;;;;;;;;;;;;;;;;;;5096143;28;19920;-22
2022/03/27 09:04:59;;;;;;;;;;;;;;;;;;5096775;28;19934;-22
2022/03/27 09:07:25;;;;;;;;;;;;;;;;;;5096164;28;19920;-23
2022/03/27 09:09:51;;;;;;;;;;;;;;;;;;5096180;28;19916;-21
2022/03/27 09:12:17;;;;;;;;;;;;;;;;;;5096457;28;19993;-22
2022/03/27 09:14:45;;;;;;;;;;;;;;;;;;5095577;28;20224;-21
2022/03/27 09:17:11;;;;;;;;;;;;;;;;;;5096539;28;20396;-21
2022/03/27 09:19:39;;;;;;;;;;;;;;;;;;5095964;28;20003;-23
2022/03/27 09:22:05;;;;;;;;;;;;;;;;;;5095810;28;19916;-22
2022/03/27 09:24:30;;;;;;;;;;;;;;;;;;5095843;28;19927;-22
2022/03/27 09:26:56;;;;;;;;;;;;;;;;;;5095826;28;19931;-22
2022/03/27 09:29:22;;;;;;;;;;;;;;;;;;5096311;28;19916;-22
2022/03/27 09:31:48;;;;;;;;;;;;;;;;;;5095702;28;20339;-21
2022/03/27 09:34:19;;;;;;;;;;;;;;;;;;5095705;28;20267;-21
2022/03/27 09:36:46;;;;;;;;;;;;;;;;;;5095869;28;19912;-25
2022/03/27 09:39:13;;;;;;;;;;;;;;;;;;5077837;28;19912;-23
2022/03/27 09:41:39;;;;;;;;;;;;;;;;;;5095595;28;19915;-22
2022/03/27 09:44:05;;;;;;;;;;;;;;;;;;5095437;28;19923;-21
2022/03/27 09:46:31;;;;;;;;;;;;;;;;;;5095548;28;19916;-22
2022/03/27 09:48:57;;;;;;;;;;;;;;;;;;5095530;28;19909;-21
2022/03/27 09:51:23;;;;;;;;;;;;;;;;;;5096059;28;20224;-22
2022/03/27 09:53:49;;;;;;;;;;;;;;;;;;5094942;28;19930;-21
2022/03/27 09:56:15;;;;;;;;;;;;;;;;;;5095965;28;20003;-22
2022/03/27 09:58:41;;;;;;;;;;;;;;;;;;5095335;28;19916;-23
2022/03/27 10:01:08;;;;;;;;;;;;;;;;;;5095535;28;19912;-22
2022/03/27 10:03:34;;;;;;;;;;;;;;;;;;5095114;28;19912;-21
2022/03/27 10:06:01;;;;;;;;;;;;;;;;;;5082106;28;20357;-21
2022/03/27 10:08:27;;;;;;;;;;;;;;;;;;5115615;28;19914;-22
2022/03/27 10:10:53;;;;;;;;;;;;;;;;;;5115510;28;20002;-22
2022/03/27 10:13:18;;;;;;;;;;;;;;;;;;5115550;28;20300;-21
2022/03/27 10:15:44;;;;;;;;;;;;;;;;;;5115560;28;19943;-21
2022/03/27 10:18:10;;;;;;;;;;;;;;;;;;5115774;28;20397;-21
2022/03/27 10:20:36;;;;;;;;;;;;;;;;;;5115807;28;19980;-22
2022/03/27 10:23:02;;;;;;;;;;;;;;;;;;5097487;28;20315;-22
2022/03/27 10:25:28;;;;;;;;;;;;;;;;;;5116009;28;19912;-22
2022/03/27 10:27:54;;;;;;;;;;;;;;;;;;5115365;28;19908;-22
2022/03/27 10:30:21;;;;;;;;;;;;;;;;;;5115397;28;19968;-24
2022/03/27 10:32:47;;;;;;;;;;;;;;;;;;5115378;28;19908;-24
2022/03/27 10:35:14;;;;;;;;;;;;;;;;;;5115371;28;20349;-22
2022/03/27 10:37:40;;;;;;;;;;;;;;;;;;5115400;28;19980;-24
2022/03/27 10:40:06;;;;;;;;;;;;;;;;;;5115631;28;19911;-24
2022/03/27 10:42:32;;;;;;;;;;;;;;;;;;5115400;28;20239;-21
2022/03/27 10:44:58;;;;;;;;;;;;;;;;;;5115878;28;19908;-21
2022/03/27 10:47:24;;;;;;;;;;;;;;;;;;5115491;28;20246;-21
2022/03/27 10:49:50;;;;;;;;;;;;;;;;;;5115487;28;19915;-23
2022/03/27 10:52:16;;;;;;;;;;;;;;;;;;5115060;28;20382;-22
2022/03/27 10:54:42;;;;;;;;;;;;;;;;;;5115224;28;19908;-22
2022/03/27 10:57:08;;;;;;;;;;;;;;;;;;5115447;28;19912;-22
2022/03/27 10:59:34;;;;;;;;;;;;;;;;;;5115194;28;20254;-22
2022/03/27 11:02:00;;;;;;;;;;;;;;;;;;5115067;28;19912;-22
2022/03/27 11:04:27;;;;;;;;;;;;;;;;;;5115662;28;19985;-22
2022/03/27 11:06:53;;;;;;;;;;;;;;;;;;5118796;28;19919;-23
2022/03/27 11:09:19;;;;;;;;;;;;;;;;;;5119104;28;19923;-22
2022/03/27 11:11:47;;;;;;;;;;;;;;;;;;5118767;28;19908;-23
2022/03/27 11:14:13;;;;;;;;;;;;;;;;;;5119435;28;19907;-22
2022/03/27 11:16:41;;;;;;;;;;;;;;;;;;5118888;28;20250;-22
2022/03/27 11:19:07;;;;;;;;;;;;;;;;;;5118759;28;20347;-21
2022/03/27 11:21:33;;;;;;;;;;;;;;;;;;5118674;28;19977;-21
2022/03/27 11:23:59;;;;;;;;;;;;;;;;;;5118468;28;20007;-22
2022/03/27 11:26:27;;;;;;;;;;;;;;;;;;5118557;28;19911;-22
2022/03/27 11:28:53;;;;;;;;;;;;;;;;;;5118464;28;19914;-22
2022/03/27 11:31:19;;;;;;;;;;;;;;;;;;5100534;28;19911;-21
2022/03/27 11:33:45;;;;;;;;;;;;;;;;;;5118686;28;20242;-21
2022/03/27 11:36:12;;;;;;;;;;;;;;;;;;5118612;28;19915;-22
2022/03/27 11:38:38;;;;;;;;;;;;;;;;;;5118394;28;20255;-21
2022/03/27 11:41:04;;;;;;;;;;;;;;;;;;5118314;28;19938;-21
2022/03/27 11:43:30;;;;;;;;;;;;;;;;;;5118104;28;19922;-21
2022/03/27 11:45:56;;;;;;;;;;;;;;;;;;5118249;28;19908;-21
2022/03/27 11:48:22;;;;;;;;;;;;;;;;;;5118356;28;19912;-21
2022/03/27 11:50:48;;;;;;;;;;;;;;;;;;5118621;28;19912;-21
2022/03/27 11:53:14;;;;;;;;;;;;;;;;;;5118012;28;19908;-22
2022/03/27 11:55:40;;;;;;;;;;;;;;;;;;5118003;28;19912;-22
2022/03/27 11:58:08;;;;;;;;;;;;;;;;;;5117852;28;20007;-21
2022/03/27 12:00:34;;;;;;;;;;;;;;;;;;5118106;28;20297;-21
2022/03/27 12:03:00;;;;;;;;;;;;;;;;;;5117661;28;19912;-21
2022/03/27 12:05:26;;;;;;;;;;;;;;;;;;5117650;28;20246;-22
2022/03/27 12:07:52;;;;;;;;;;;;;;;;;;5117757;28;19912;-22
2022/03/27 12:10:18;;;;;;;;;;;;;;;;;;5118264;28;19912;-21
2022/03/27 12:12:45;;;;;;;;;;;;;;;;;;5117790;28;19931;-22
2022/03/27 12:15:11;;;;;;;;;;;;;;;;;;5117532;28;19964;-21
2022/03/27 12:17:37;;;;;;;;;;;;;;;;;;5117569;28;20386;-21
2022/03/27 12:20:04;;;;;;;;;;;;;;;;;;5099564;28;20269;-21
2022/03/27 12:22:30;;;;;;;;;;;;;;;;;;5117634;28;19907;-22
2022/03/27 12:24:56;;;;;;;;;;;;;;;;;;5117788;28;20286;-21
2022/03/27 12:30:06;;;;;;;;;;;;;;;;;;5117442;28;20012;-21
2022/03/27 12:32:32;;;;;;;;;;;;;;;;;;5117265;28;20362;-22
2022/03/27 12:35:02;;;;;;;;;;;;;;;;;;5117540;28;20267;-21
2022/03/27 12:37:29;;;;;;;;;;;;;;;;;;5099174;28;19922;-22
2022/03/27 12:39:55;;;;;;;;;;;;;;;;;;5117064;28;19961;-21
2022/03/27 12:42:21;;;;;;;;;;;;;;;;;;5116931;28;20018;-21
2022/03/27 12:44:47;;;;;;;;;;;;;;;;;;5117072;28;19947;-22
2022/03/27 12:47:13;;;;;;;;;;;;;;;;;;5116928;28;19918;-22
2022/03/27 12:49:40;;;;;;;;;;;;;;;;;;5117193;28;20323;-23
2022/03/27 12:52:06;;;;;;;;;;;;;;;;;;5117064;28;20285;-23
2022/03/27 12:54:32;;;;;;;;;;;;;;;;;;5116807;28;20049;-21
2022/03/27 12:56:58;;;;;;;;;;;;;;;;;;5116793;28;19961;-21
2022/03/27 12:59:24;;;;;;;;;;;;;;;;;;5116694;28;19912;-22
2022/03/27 13:01:50;;;;;;;;;;;;;;;;;;5116609;28;19912;-21
2022/03/27 13:04:16;;;;;;;;;;;;;;;;;;5116541;28;20343;-21
2022/03/27 13:06:43;;;;;;;;;;;;;;;;;;5116398;28;19920;-21
2022/03/27 13:09:09;;;;;;;;;;;;;;;;;;5116601;28;19908;-23
2022/03/27 13:11:35;;;;;;;;;;;;;;;;;;5117037;28;19997;-22
2022/03/27 13:14:01;;;;;;;;;;;;;;;;;;5116398;28;19912;-21
2022/03/27 13:16:27;;;;;;;;;;;;;;;;;;5116395;28;19911;-22
2022/03/27 13:18:53;;;;;;;;;;;;;;;;;;5116661;28;20215;-21
2022/03/27 13:21:19;;;;;;;;;;;;;;;;;;5116891;28;19919;-22
2022/03/27 13:23:45;;;;;;;;;;;;;;;;;;5116460;28;19955;-21
2022/03/27 13:26:11;;;;;;;;;;;;;;;;;;5116499;28;19916;-21
2022/03/27 13:28:37;;;;;;;;;;;;;;;;;;5115585;28;20076;-21
2022/03/27 13:31:03;;;;;;;;;;;;;;;;;;5116149;28;19919;-21
2022/03/27 13:33:29;;;;;;;;;;;;;;;;;;5116655;28;20344;-21
2022/03/27 13:35:56;;;;;;;;;;;;;;;;;;5116053;28;19995;-21
2022/03/27 13:38:22;;;;;;;;;;;;;;;;;;5116315;28;19908;-22
2022/03/27 13:43:33;;;;;;;;;;;;;;;;;;5116113;28;19927;-22
2022/03/27 13:45:59;;;;;;;;;;;;;;;;;;5116521;28;19912;-22
2022/03/27 13:48:25;;;;;;;;;;;;;;;;;;5115863;28;19912;-22
2022/03/27 13:50:51;;;;;;;;;;;;;;;;;;5116115;28;19912;-22
2022/03/27 13:53:17;;;;;;;;;;;;;;;;;;5115719;28;19912;-21
2022/03/27 13:55:43;;;;;;;;;;;;;;;;;;5116107;28;19908;-21
2022/03/27 13:58:09;;;;;;;;;;;;;;;;;;5115950;28;20242;-21
2022/03/27 14:00:35;;;;;;;;;;;;;;;;;;5116022;28;19908;-22
2022/03/27 14:03:01;;;;;;;;;;;;;;;;;;5115517;28;20358;-22
2022/03/27 14:05:27;;;;;;;;;;;;;;;;;;5115456;28;19951;-22
2022/03/27 14:07:54;;;;;;;;;;;;;;;;;;5115621;28;19915;-21
2022/03/27 14:10:20;;;;;;;;;;;;;;;;;;5115626;28;20331;-22
2022/03/27 14:12:46;;;;;;;;;;;;;;;;;;5115504;28;20381;-23
2022/03/27 14:15:12;;;;;;;;;;;;;;;;;;5115565;28;19912;-22
2022/03/27 14:17:39;;;;;;;;;;;;;;;;;;5115786;28;19912;-23
2022/03/27 14:20:05;;;;;;;;;;;;;;;;;;5115570;28;19922;-23
2022/03/27 14:22:30;;;;;;;;;;;;;;;;;;5115995;28;20068;-22
2022/03/27 14:24:57;;;;;;;;;;;;;;;;;;5115443;28;19934;-22
2022/03/27 14:27:23;;;;;;;;;;;;;;;;;;5116244;28;19923;-22
2022/03/27 14:29:49;;;;;;;;;;;;;;;;;;5115315;28;20007;-22
2022/03/27 14:32:16;;;;;;;;;;;;;;;;;;5115601;28;19951;-22
2022/03/27 14:34:42;;;;;;;;;;;;;;;;;;5115294;28;20299;-22
2022/03/27 14:37:08;;;;;;;;;;;;;;;;;;5115321;28;19915;-23
2022/03/27 14:39:34;;;;;;;;;;;;;;;;;;5117742;28;19994;-22
2022/03/27 14:42:00;;;;;;;;;;;;;;;;;;5119339;28;20006;-25
2022/03/27 14:44:26;;;;;;;;;;;;;;;;;;5119280;28;19916;-22
2022/03/27 14:46:52;;;;;;;;;;;;;;;;;;5119314;28;19908;-22
2022/03/27 14:49:18;;;;;;;;;;;;;;;;;;5119387;28;19927;-23
2022/03/27 14:51:44;;;;;;;;;;;;;;;;;;5119271;28;19912;-22
2022/03/27 14:56:55;;;;;;;;;;;;;;;;;;5119569;28;20388;-22
2022/03/27 14:59:21;;;;;;;;;;;;;;;;;;5119476;28;19912;-23
2022/03/27 15:01:49;;;;;;;;;;;;;;;;;;5118928;28;20342;-22
2022/03/27 15:04:15;;;;;;;;;;;;;;;;;;5118929;28;20007;-22
2022/03/27 15:06:41;;;;;;;;;;;;;;;;;;5118822;28;19970;-22
2022/03/27 15:09:07;;;;;;;;;;;;;;;;;;5118967;28;19914;-22
2022/03/27 15:11:34;;;;;;;;;;;;;;;;;;5118874;28;20258;-22
2022/03/27 15:14:02;;;;;;;;;;;;;;;;;;5118750;28;19965;-23
2022/03/27 15:16:28;;;;;;;;;;;;;;;;;;5119077;28;19915;-22
2022/03/27 15:18:54;;;;;;;;;;;;;;;;;;5118760;28;19908;-22
2022/03/27 15:21:21;;;;;;;;;;;;;;;;;;5119310;28;19912;-24
2022/03/27 15:23:47;;;;;;;;;;;;;;;;;;5118716;28;19927;-24
2022/03/27 15:26:13;;;;;;;;;;;;;;;;;;5118908;28;20258;-22
2022/03/27 15:28:39;;;;;;;;;;;;;;;;;;5118630;28;19912;-23
2022/03/27 15:31:08;;;;;;;;;;;;;;;;;;5118792;28;19912;-24
2022/03/27 15:33:34;;;;;;;;;;;;;;;;;;5118579;28;19983;-25
2022/03/27 15:36:00;;;;;;;;;;;;;;;;;;5118954;28;19919;-21
2022/03/27 15:38:26;;;;;;;;;;;;;;;;;;5118440;28;19908;-23
2022/03/27 15:40:52;;;;;;;;;;;;;;;;;;5118330;28;19922;-22
2022/03/27 15:43:18;;;;;;;;;;;;;;;;;;5118173;28;19911;-22
2022/03/27 15:45:44;;;;;;;;;;;;;;;;;;5118849;28;19964;-21
2022/03/27 15:48:10;;;;;;;;;;;;;;;;;;5100256;28;19912;-23
2022/03/27 15:50:36;;;;;;;;;;;;;;;;;;5117391;28;19912;-22
2022/03/27 15:53:02;;;;;;;;;;;;;;;;;;5118374;28;19920;-23
2022/03/27 15:55:28;;;;;;;;;;;;;;;;;;5100032;28;20357;-22
2022/03/27 15:57:54;;;;;;;;;;;;;;;;;;5117944;28;19908;-22
2022/03/27 16:00:20;;;;;;;;;;;;;;;;;;5117932;28;19964;-22
2022/03/27 16:02:46;;;;;;;;;;;;;;;;;;5117698;28;19992;-22
2022/03/27 16:05:12;;;;;;;;;;;;;;;;;;5117902;28;19969;-23
2022/03/27 16:07:38;;;;;;;;;;;;;;;;;;5117536;28;20382;-22
2022/03/27 16:10:04;;;;;;;;;;;;;;;;;;5118329;28;19918;-22
2022/03/27 16:12:30;;;;;;;;;;;;;;;;;;5117682;28;19908;-22
2022/03/27 16:14:56;;;;;;;;;;;;;;;;;;5117704;28;19915;-22
2022/03/27 16:17:23;;;;;;;;;;;;;;;;;;5118199;28;20328;-22
2022/03/27 16:19:49;;;;;;;;;;;;;;;;;;5117596;28;20312;-22
2022/03/27 16:22:15;;;;;;;;;;;;;;;;;;5117719;28;19908;-22
2022/03/27 16:24:41;;;;;;;;;;;;;;;;;;5117432;28;20315;-22
2022/03/27 16:27:07;;;;;;;;;;;;;;;;;;5117685;28;20250;-22
2022/03/27 16:29:34;;;;;;;;;;;;;;;;;;5117394;28;20320;-23
2022/03/27 16:32:00;;;;;;;;;;;;;;;;;;5117482;28;19908;-22
2022/03/27 16:34:29;;;;;;;;;;;;;;;;;;5117346;28;20373;-21
2022/03/27 16:36:55;;;;;;;;;;;;;;;;;;5117515;28;19994;-22
2022/03/27 16:39:21;;;;;;;;;;;;;;;;;;5117751;28;19985;-22
2022/03/27 16:41:47;;;;;;;;;;;;;;;;;;5099106;28;20004;-21
2022/03/27 16:44:13;;;;;;;;;;;;;;;;;;5117321;28;19972;-25
2022/03/27 16:46:39;;;;;;;;;;;;;;;;;;5117586;28;20322;-22
2022/03/27 16:49:05;;;;;;;;;;;;;;;;;;5117072;28;19908;-23
2022/03/27 16:51:31;;;;;;;;;;;;;;;;;;5117215;28;19926;-22
2022/03/27 16:53:57;;;;;;;;;;;;;;;;;;5116860;28;20382;-23
2022/03/27 16:56:23;;;;;;;;;;;;;;;;;;5116851;28;19912;-22